createdAt,value
2019-06-15T00:01:37.391Z,20.12
2019-06-15T00:04:04.030Z,20.23
2019-06-15T00:06:30.784Z,20.22
2019-06-15T00:08:57.397Z,20.29
2019-06-15T00:11:24.176Z,20.34
2019-06-15T00:13:50.753Z,20.28
2019-06-15T00:16:17.311Z,20.18
2019-06-15T00:18:44.325Z,20.13
2019-06-15T00:21:10.878Z,20.15
2019-06-15T00:23:37.460Z,20.17
2019-06-15T00:26:04.075Z,20.21
2019-06-15T00:28:30.856Z,20.25
2019-06-15T00:30:57.463Z,20.26
2019-06-15T00:33:23.925Z,20.04
2019-06-15T00:35:50.458Z,19.74
2019-06-15T00:38:16.957Z,19.62
2019-06-15T00:40:43.501Z,19.32
2019-06-15T00:43:10.332Z,19.11
2019-06-15T00:45:36.881Z,18.89
2019-06-15T00:48:03.356Z,18.85
2019-06-15T00:50:29.925Z,18.85
2019-06-15T00:52:56.471Z,18.97
2019-06-15T00:55:23.148Z,19.06
2019-06-15T00:57:49.919Z,19.11
2019-06-15T01:00:17.220Z,19.11
2019-06-15T01:02:43.770Z,19.20
2019-06-15T01:05:13.386Z,19.20
2019-06-15T01:07:40.679Z,19.16
2019-06-15T01:10:07.632Z,19.11
2019-06-15T01:12:36.806Z,18.88
2019-06-15T01:15:04.378Z,18.60
2019-06-15T01:17:30.962Z,18.35
2019-06-15T01:19:57.473Z,18.18
2019-06-15T01:22:23.974Z,18.15
2019-06-15T01:25:04.706Z,18.09
2019-06-15T01:27:19.017Z,18.05
2019-06-15T01:29:47.807Z,18.04
2019-06-15T01:32:14.682Z,18.06
2019-06-15T01:34:41.220Z,18.10
2019-06-15T01:37:07.833Z,18.19
2019-06-15T01:39:36.337Z,18.26
2019-06-15T01:42:03.384Z,18.30
2019-06-15T01:44:29.948Z,18.34
2019-06-15T01:46:56.507Z,18.37
2019-06-15T01:49:23.353Z,18.35
2019-06-15T01:51:49.892Z,18.32
2019-06-15T01:54:21.434Z,18.08
2019-06-15T01:56:47.922Z,18.00
2019-06-15T01:59:14.576Z,18.00
2019-06-15T02:01:41.433Z,18.04
2019-06-15T02:04:07.959Z,18.12
2019-06-15T02:06:34.925Z,18.21
2019-06-15T02:09:01.578Z,18.29
2019-06-15T02:11:28.131Z,18.38
2019-06-15T02:13:54.642Z,18.39
2019-06-15T02:16:21.366Z,18.34
2019-06-15T02:18:47.870Z,18.25
2019-06-15T02:21:14.443Z,18.04
2019-06-15T02:23:41.034Z,17.86
2019-06-15T02:26:07.620Z,17.82
2019-06-15T02:28:34.274Z,17.88
2019-06-15T02:31:01.040Z,17.95
2019-06-15T02:33:27.719Z,17.99
2019-06-15T02:35:54.597Z,18.01
2019-06-15T02:38:21.230Z,18.01
2019-06-15T02:40:47.727Z,18.00
2019-06-15T02:43:14.376Z,17.79
2019-06-15T02:45:42.200Z,17.71
2019-06-15T02:48:09.075Z,17.66
2019-06-15T02:50:35.934Z,17.72
2019-06-15T02:53:02.910Z,17.78
2019-06-15T02:55:29.411Z,17.74
2019-06-15T02:57:57.190Z,17.71
2019-06-15T03:00:38.045Z,17.65
2019-06-15T03:03:05.098Z,17.66
2019-06-15T03:05:31.727Z,17.72
2019-06-15T03:07:58.542Z,17.74
2019-06-15T03:10:26.290Z,17.76
2019-06-15T03:12:52.904Z,17.70
2019-06-15T03:15:37.812Z,17.59
2019-06-15T03:18:04.409Z,17.57
2019-06-15T03:20:30.923Z,17.59
2019-06-15T03:22:57.899Z,17.74
2019-06-15T03:25:24.812Z,17.85
2019-06-15T03:27:51.442Z,17.95
2019-06-15T03:30:22.290Z,18.05
2019-06-15T03:32:49.131Z,18.13
2019-06-15T03:35:15.763Z,18.19
2019-06-15T03:37:42.337Z,18.23
2019-06-15T03:40:09.986Z,18.30
2019-06-15T03:42:36.512Z,18.34
2019-06-15T03:45:03.565Z,18.41
2019-06-15T03:47:30.353Z,18.59
2019-06-15T03:49:56.928Z,18.98
2019-06-15T03:52:23.502Z,18.98
2019-06-15T03:54:50.023Z,19.07
2019-06-15T03:57:16.973Z,19.13
2019-06-15T03:59:43.591Z,19.19
2019-06-15T04:02:10.119Z,19.22
2019-06-15T04:04:36.651Z,19.24
2019-06-15T04:07:03.448Z,19.32
2019-06-15T04:09:30.033Z,19.33
2019-06-15T04:11:58.913Z,19.39
2019-06-15T04:14:25.768Z,19.36
2019-06-15T04:16:52.653Z,19.39
2019-06-15T04:19:19.211Z,19.42
2019-06-15T04:21:46.316Z,19.42
2019-06-15T04:24:13.256Z,19.48
2019-06-15T04:26:39.824Z,19.49
2019-06-15T04:29:07.598Z,19.49
2019-06-15T04:31:34.246Z,19.49
2019-06-15T04:34:01.375Z,19.48
2019-06-15T04:36:27.920Z,19.45
2019-06-15T04:38:54.463Z,19.48
2019-06-15T04:41:21.773Z,19.54
2019-06-15T04:43:50.437Z,19.70
2019-06-15T04:46:16.968Z,19.77
2019-06-15T04:48:43.588Z,19.85
2019-06-15T04:51:10.127Z,19.89
2019-06-15T04:53:36.775Z,19.83
2019-06-15T04:56:03.375Z,19.88
2019-06-15T04:58:29.937Z,19.71
2019-06-15T05:00:56.587Z,19.53
2019-06-15T05:03:23.113Z,19.50
2019-06-15T05:05:50.055Z,19.47
2019-06-15T05:08:16.531Z,19.35
2019-06-15T05:10:59.919Z,19.36
2019-06-15T05:13:26.894Z,19.43
2019-06-15T05:15:53.903Z,19.62
2019-06-15T05:18:20.453Z,19.73
2019-06-15T05:20:46.989Z,19.66
2019-06-15T05:23:13.530Z,19.58
2019-06-15T05:25:40.015Z,19.52
2019-06-15T05:28:07.143Z,19.43
2019-06-15T05:30:33.715Z,19.45
2019-06-15T05:33:00.497Z,19.55
2019-06-15T05:35:27.038Z,20.03
2019-06-15T05:37:54.252Z,20.59
2019-06-15T05:40:22.967Z,21.18
2019-06-15T05:42:49.498Z,21.64
2019-06-15T05:45:16.158Z,21.81
2019-06-15T05:47:42.733Z,22.08
2019-06-15T05:50:09.313Z,22.49
2019-06-15T05:52:36.188Z,22.63
2019-06-15T05:55:04.161Z,22.48
2019-06-15T05:57:30.828Z,22.31
2019-06-15T05:59:57.578Z,22.25
2019-06-15T06:02:24.922Z,22.22
2019-06-15T06:04:51.822Z,22.35
2019-06-15T06:07:18.640Z,22.39
2019-06-15T06:09:46.381Z,22.41
2019-06-15T06:12:13.016Z,22.43
2019-06-15T06:14:39.601Z,22.57
2019-06-15T06:17:06.464Z,22.52
2019-06-15T06:19:33.001Z,22.73
2019-06-15T06:21:59.522Z,22.86
2019-06-15T06:24:26.030Z,22.88
2019-06-15T06:26:52.834Z,23.25
2019-06-15T06:29:19.314Z,23.41
2019-06-15T06:31:46.212Z,23.70
2019-06-15T06:34:12.751Z,23.90
2019-06-15T06:36:39.292Z,24.10
2019-06-15T06:39:06.241Z,23.97
2019-06-15T06:41:36.136Z,23.89
2019-06-15T06:44:02.963Z,24.09
2019-06-15T06:46:31.110Z,24.31
2019-06-15T06:48:57.671Z,24.78
2019-06-15T06:51:24.156Z,25.25
2019-06-15T06:53:50.670Z,25.91
2019-06-15T06:56:17.267Z,26.60
2019-06-15T06:58:43.810Z,26.98
2019-06-15T07:01:10.882Z,27.55
2019-06-15T07:03:37.464Z,27.74
2019-06-15T07:06:04.487Z,27.73
2019-06-15T07:08:31.107Z,27.82
2019-06-15T07:10:57.628Z,27.82
2019-06-15T07:13:24.227Z,27.92
2019-06-15T07:15:50.831Z,28.16
2019-06-15T07:18:18.246Z,28.28
2019-06-15T07:20:45.859Z,28.34
2019-06-15T07:23:12.770Z,28.31
2019-06-15T07:25:39.278Z,28.57
2019-06-15T07:28:08.233Z,28.75
2019-06-15T07:30:34.444Z,29.24
2019-06-15T07:33:01.488Z,29.33
2019-06-15T07:35:28.022Z,29.56
2019-06-15T07:37:54.886Z,29.62
2019-06-15T07:40:21.422Z,29.99
2019-06-15T07:42:47.995Z,30.17
2019-06-15T07:45:14.721Z,30.14
2019-06-15T07:47:41.873Z,29.98
2019-06-15T07:50:09.762Z,29.74
2019-06-15T07:52:36.290Z,29.44
2019-06-15T07:55:03.510Z,29.86
2019-06-15T07:57:30.161Z,29.55
2019-06-15T07:59:56.803Z,29.75
2019-06-15T08:02:27.212Z,30.10
2019-06-15T08:04:53.773Z,30.18
2019-06-15T08:07:20.292Z,30.27
2019-06-15T08:09:46.903Z,30.22
2019-06-15T08:12:13.443Z,30.20
2019-06-15T08:14:40.187Z,30.36
2019-06-15T08:17:06.741Z,30.46
2019-06-15T08:19:33.474Z,30.40
2019-06-15T08:22:00.364Z,30.32
2019-06-15T08:24:27.141Z,30.66
2019-06-15T08:26:56.261Z,30.78
2019-06-15T08:29:23.273Z,30.92
2019-06-15T08:31:50.974Z,30.80
2019-06-15T08:34:17.616Z,30.94
2019-06-15T08:36:47.462Z,30.63
2019-06-15T08:39:13.991Z,30.17
2019-06-15T08:41:40.984Z,29.61
2019-06-15T08:44:07.690Z,28.83
2019-06-15T08:46:35.960Z,28.32
2019-06-15T08:49:02.651Z,27.83
2019-06-15T08:51:29.321Z,27.60
2019-06-15T08:53:56.080Z,27.59
2019-06-15T08:56:23.854Z,27.65
2019-06-15T08:58:55.562Z,27.62
2019-06-15T09:01:18.790Z,27.58
2019-06-15T09:03:45.439Z,27.43
2019-06-15T09:06:11.997Z,27.70
2019-06-15T09:08:38.599Z,27.87
2019-06-15T09:11:05.377Z,27.61
2019-06-15T09:15:59.928Z,27.73
2019-06-15T09:18:26.706Z,27.70
2019-06-15T09:20:53.198Z,27.70
2019-06-15T09:23:19.971Z,27.55
2019-06-15T09:25:46.662Z,27.41
2019-06-15T09:28:13.376Z,27.37
2019-06-15T09:30:40.315Z,27.30
2019-06-15T09:33:07.093Z,27.25
2019-06-15T09:35:35.786Z,27.20
2019-06-15T09:38:02.379Z,27.37
2019-06-15T09:40:29.051Z,27.49
2019-06-15T09:42:56.657Z,27.37
2019-06-15T09:45:23.156Z,27.31
2019-06-15T09:47:50.149Z,27.53
2019-06-15T09:50:18.713Z,27.92
2019-06-15T09:52:46.308Z,28.04
2019-06-15T09:55:12.969Z,28.45
2019-06-15T09:57:39.617Z,29.01
2019-06-15T10:00:06.624Z,28.84
2019-06-15T10:02:33.348Z,28.97
2019-06-15T10:04:59.938Z,29.55
2019-06-15T10:07:26.486Z,30.08
2019-06-15T10:09:53.086Z,30.32
2019-06-15T10:12:20.581Z,30.61
2019-06-15T10:14:47.235Z,30.49
2019-06-15T10:17:13.916Z,30.56
2019-06-15T10:19:40.780Z,30.36
2019-06-15T10:22:07.516Z,30.50
2019-06-15T10:24:34.163Z,30.69
2019-06-15T10:27:00.904Z,30.85
2019-06-15T10:29:41.218Z,30.79
2019-06-15T10:31:57.023Z,31.01
2019-06-15T10:34:24.073Z,31.25
2019-06-15T10:36:50.821Z,31.37
2019-06-15T10:39:17.569Z,30.72
2019-06-15T10:41:44.166Z,29.91
2019-06-15T10:44:10.858Z,28.80
2019-06-15T10:46:48.011Z,28.73
2019-06-15T10:49:14.663Z,29.03
2019-06-15T10:51:45.189Z,29.66
2019-06-15T10:54:11.858Z,29.73
2019-06-15T10:56:47.962Z,30.23
2019-06-15T10:59:17.343Z,30.28
2019-06-15T11:01:43.993Z,30.46
2019-06-15T11:04:10.635Z,30.23
2019-06-15T11:06:43.696Z,30.32
2019-06-15T11:09:10.307Z,30.29
2019-06-15T11:11:37.122Z,30.02
2019-06-15T11:14:06.078Z,29.94
2019-06-15T11:16:32.737Z,30.23
2019-06-15T11:19:00.557Z,30.47
2019-06-15T11:21:27.217Z,30.41
2019-06-15T11:23:54.070Z,30.17
2019-06-15T11:26:20.654Z,30.70
2019-06-15T11:28:47.285Z,30.84
2019-06-15T11:31:16.561Z,31.34
2019-06-15T11:33:45.422Z,30.96
2019-06-15T11:36:12.261Z,30.87
2019-06-15T11:38:39.847Z,30.41
2019-06-15T11:41:09.523Z,30.14
2019-06-15T11:43:40.129Z,30.24
2019-06-15T11:46:07.172Z,30.39
2019-06-15T11:48:33.775Z,30.62
2019-06-15T11:51:00.639Z,30.37
2019-06-15T11:53:27.487Z,30.32
2019-06-15T11:55:54.417Z,30.36
2019-06-15T11:58:21.828Z,30.09
2019-06-15T12:00:48.344Z,29.53
2019-06-15T12:03:16.286Z,28.70
2019-06-15T12:05:43.083Z,28.83
2019-06-15T12:08:13.835Z,28.96
2019-06-15T12:10:40.937Z,29.70
2019-06-15T12:13:08.552Z,30.26
2019-06-15T12:15:35.101Z,30.57
2019-06-15T12:18:01.713Z,30.97
2019-06-15T12:20:28.224Z,31.34
2019-06-15T12:22:54.884Z,30.73
2019-06-15T12:25:21.510Z,29.72
2019-06-15T12:27:50.682Z,29.33
2019-06-15T12:30:24.445Z,29.03
2019-06-15T12:32:51.037Z,29.47
2019-06-15T12:35:18.029Z,30.13
2019-06-15T12:37:48.579Z,30.47
2019-06-15T12:40:15.490Z,30.55
2019-06-15T12:42:42.624Z,30.68
2019-06-15T12:45:10.298Z,30.57
2019-06-15T12:47:36.902Z,30.46
2019-06-15T12:50:04.627Z,30.78
2019-06-15T12:52:33.504Z,30.78
2019-06-15T12:55:00.104Z,30.70
2019-06-15T12:57:26.650Z,30.04
2019-06-15T12:59:53.154Z,30.35
2019-06-15T13:02:19.834Z,30.93
2019-06-15T13:04:46.406Z,30.79
2019-06-15T13:07:13.022Z,30.80
2019-06-15T13:09:39.725Z,31.12
2019-06-15T13:12:06.523Z,30.78
2019-06-15T13:14:33.292Z,30.36
2019-06-15T13:16:59.803Z,30.87
2019-06-15T13:19:26.590Z,30.07
2019-06-15T13:21:53.211Z,29.96
2019-06-15T13:24:19.888Z,29.91
2019-06-15T13:26:46.386Z,29.24
2019-06-15T13:29:13.236Z,28.76
2019-06-15T13:31:39.845Z,28.51
2019-06-15T13:34:06.362Z,28.65
2019-06-15T13:36:32.943Z,28.63
2019-06-15T13:39:00.873Z,28.90
2019-06-15T13:41:27.381Z,29.18
2019-06-15T13:43:54.183Z,28.99
2019-06-15T13:46:21.236Z,28.44
2019-06-15T13:48:47.948Z,28.46
2019-06-15T13:51:14.459Z,28.79
2019-06-15T13:53:41.242Z,29.20
2019-06-15T13:56:07.941Z,28.76
2019-06-15T13:58:34.545Z,28.41
2019-06-15T14:01:01.396Z,28.09
2019-06-15T14:03:28.030Z,27.51
2019-06-15T14:05:54.621Z,27.81
2019-06-15T14:08:21.298Z,28.43
2019-06-15T14:10:47.889Z,28.65
2019-06-15T14:13:14.603Z,29.08
2019-06-15T14:15:41.146Z,29.74
2019-06-15T14:18:08.448Z,29.66
2019-06-15T14:20:34.984Z,29.58
2019-06-15T14:23:01.527Z,29.41
2019-06-15T14:25:30.717Z,29.07
2019-06-15T14:27:57.670Z,28.91
2019-06-15T14:30:24.295Z,28.67
2019-06-15T14:32:50.963Z,28.75
2019-06-15T14:35:17.612Z,29.10
2019-06-15T14:40:24.642Z,28.69
2019-06-15T14:42:51.243Z,28.57
2019-06-15T14:45:17.864Z,28.65
2019-06-15T14:47:44.690Z,28.95
2019-06-15T14:50:11.302Z,28.80
2019-06-15T14:52:38.244Z,28.55
2019-06-15T14:55:07.262Z,28.44
2019-06-15T14:57:36.131Z,28.58
2019-06-15T15:00:05.919Z,28.84
2019-06-15T15:02:36.973Z,28.53
2019-06-15T15:05:03.605Z,28.18
2019-06-15T15:07:30.530Z,28.19
2019-06-15T15:09:57.315Z,28.16
2019-06-15T15:12:26.354Z,28.21
2019-06-15T15:14:56.574Z,28.16
2019-06-15T15:17:23.362Z,27.84
2019-06-15T15:19:49.871Z,27.65
2019-06-15T15:22:16.602Z,27.63
2019-06-15T15:24:43.475Z,27.82
2019-06-15T15:27:10.023Z,27.63
2019-06-15T15:29:36.594Z,27.71
2019-06-15T15:32:03.198Z,27.46
2019-06-15T15:34:29.954Z,27.55
2019-06-15T15:36:56.945Z,27.69
2019-06-15T15:39:23.536Z,27.71
2019-06-15T15:41:50.122Z,27.71
2019-06-15T15:44:16.895Z,27.54
2019-06-15T15:46:46.211Z,27.44
2019-06-15T15:49:13.134Z,27.33
2019-06-15T15:51:39.940Z,26.82
2019-06-15T15:54:07.302Z,26.56
2019-06-15T15:56:36.749Z,26.72
2019-06-15T15:59:03.537Z,27.02
2019-06-15T16:01:36.988Z,26.93
2019-06-15T16:04:03.389Z,26.74
2019-06-15T16:06:30.443Z,26.97
2019-06-15T16:08:57.081Z,27.16
2019-06-15T16:11:23.664Z,27.18
2019-06-15T16:13:56.336Z,26.85
2019-06-15T16:16:22.202Z,26.88
2019-06-15T16:18:51.905Z,26.74
2019-06-15T16:21:18.471Z,26.76
2019-06-15T16:23:46.262Z,26.40
2019-06-15T16:26:16.583Z,26.08
2019-06-15T16:28:45.940Z,25.97
2019-06-15T16:31:13.815Z,26.14
2019-06-15T16:33:41.796Z,26.28
2019-06-15T16:36:08.680Z,26.45
2019-06-15T16:38:36.552Z,26.60
2019-06-15T16:41:03.383Z,26.66
2019-06-15T16:43:30.197Z,26.12
2019-06-15T16:45:57.185Z,26.05
2019-06-15T16:48:25.961Z,25.94
2019-06-15T16:50:54.442Z,25.57
2019-06-15T16:53:21.258Z,25.59
2019-06-15T16:55:48.653Z,25.62
2019-06-15T16:58:16.150Z,25.59
2019-06-15T17:00:42.982Z,25.54
2019-06-15T17:03:21.043Z,25.56
2019-06-15T17:05:37.924Z,25.55
2019-06-15T17:08:07.007Z,25.40
2019-06-15T17:10:36.765Z,25.26
2019-06-15T17:13:03.515Z,25.26
2019-06-15T17:15:30.065Z,25.34
2019-06-15T17:17:56.606Z,25.21
2019-06-15T17:20:27.536Z,25.21
2019-06-15T17:22:56.235Z,25.16
2019-06-15T17:25:22.587Z,25.09
2019-06-15T17:27:49.233Z,25.23
2019-06-15T17:30:17.234Z,25.15
2019-06-15T17:32:44.187Z,24.94
2019-06-15T17:35:10.753Z,24.80
2019-06-15T17:37:37.253Z,24.84
2019-06-15T17:40:04.521Z,24.87
2019-06-15T17:42:31.051Z,24.81
2019-06-15T17:44:57.660Z,24.81
2019-06-15T17:47:26.229Z,24.76
2019-06-15T17:49:52.591Z,24.65
2019-06-15T17:52:19.089Z,24.55
2019-06-15T17:54:46.680Z,24.50
2019-06-15T17:57:13.452Z,24.41
2019-06-15T17:59:40.302Z,24.39
2019-06-15T18:02:06.917Z,24.38
2019-06-15T18:04:37.111Z,24.33
2019-06-15T18:07:02.683Z,24.25
2019-06-15T18:09:29.515Z,24.10
2019-06-15T18:11:58.673Z,24.08
2019-06-15T18:14:26.378Z,24.00
2019-06-15T18:16:59.046Z,23.97
2019-06-15T18:19:26.146Z,23.86
2019-06-15T18:21:52.775Z,23.81
2019-06-15T18:24:19.684Z,23.82
2019-06-15T18:26:50.379Z,23.68
2019-06-15T18:29:26.421Z,23.67
2019-06-15T18:31:53.110Z,23.65
2019-06-15T18:34:21.502Z,23.64
2019-06-15T18:36:47.990Z,23.52
2019-06-15T18:39:16.542Z,23.41
2019-06-15T18:41:43.151Z,23.37
2019-06-15T18:44:09.732Z,23.28
2019-06-15T18:46:36.849Z,23.19
2019-06-15T18:49:06.519Z,23.13
2019-06-15T18:51:32.241Z,23.05
2019-06-15T18:53:58.753Z,23.02
2019-06-15T18:56:27.098Z,22.99
2019-06-15T18:58:56.158Z,22.92
2019-06-15T19:01:22.963Z,22.81
2019-06-15T19:03:49.530Z,22.73
2019-06-15T19:06:16.898Z,22.72
2019-06-15T19:08:46.630Z,22.68
2019-06-15T19:11:12.780Z,22.58
2019-06-15T19:13:39.398Z,22.49
2019-06-15T19:16:06.950Z,22.39
2019-06-15T19:18:33.817Z,22.37
2019-06-15T19:21:00.766Z,22.25
2019-06-15T19:23:27.799Z,22.21
2019-06-15T19:25:57.076Z,22.20
2019-06-15T19:28:23.292Z,22.13
2019-06-15T19:30:49.943Z,21.98
2019-06-15T19:33:16.532Z,21.93
2019-06-15T19:35:43.157Z,21.76
2019-06-15T19:38:11.719Z,21.67
2019-06-15T19:40:38.492Z,21.64
2019-06-15T19:43:06.548Z,21.54
2019-06-15T19:45:42.378Z,21.41
2019-06-15T19:48:08.873Z,21.37
2019-06-15T19:50:36.250Z,21.32
2019-06-15T19:53:03.381Z,21.25
2019-06-15T19:55:29.869Z,21.18
2019-06-15T19:57:56.926Z,21.07
2019-06-15T20:00:23.673Z,21.06
2019-06-15T20:02:52.398Z,21.00
2019-06-15T20:05:23.091Z,20.93
2019-06-15T20:07:49.644Z,20.89
2019-06-15T20:10:16.637Z,20.85
2019-06-15T20:12:43.616Z,20.81
2019-06-15T20:15:11.326Z,20.81
2019-06-15T20:17:37.789Z,20.70
2019-06-15T20:20:06.959Z,20.64
2019-06-15T20:22:37.238Z,20.62
2019-06-15T20:25:06.462Z,20.60
2019-06-15T20:27:34.106Z,20.51
2019-06-15T20:30:00.617Z,20.45
2019-06-15T20:32:27.525Z,20.37
2019-06-15T20:34:54.076Z,20.32
2019-06-15T20:37:20.693Z,20.26
2019-06-15T20:39:47.144Z,20.11
2019-06-15T20:42:16.474Z,19.86
2019-06-15T20:44:43.121Z,19.76
2019-06-15T20:47:09.720Z,19.58
2019-06-15T20:49:36.951Z,19.44
2019-06-15T20:52:03.675Z,19.39
2019-06-15T20:54:30.335Z,19.38
2019-06-15T20:56:57.065Z,19.36
2019-06-15T20:59:26.074Z,19.29
2019-06-15T21:01:52.955Z,19.18
2019-06-15T21:04:19.462Z,19.12
2019-06-15T21:06:46.283Z,19.07
2019-06-15T21:09:16.390Z,19.00
2019-06-15T21:11:43.356Z,18.86
2019-06-15T21:14:15.864Z,18.67
2019-06-15T21:16:46.315Z,18.55
2019-06-15T21:19:13.951Z,18.45
2019-06-15T21:21:40.480Z,18.41
2019-06-15T21:24:08.005Z,18.40
2019-06-15T21:26:34.628Z,18.35
2019-06-15T21:29:01.203Z,18.20
2019-06-15T21:31:27.885Z,18.05
2019-06-15T21:33:56.118Z,17.97
2019-06-15T21:36:22.668Z,17.77
2019-06-15T21:38:51.469Z,17.55
2019-06-15T21:41:18.279Z,17.40
2019-06-15T21:43:47.011Z,17.37
2019-06-15T21:46:13.615Z,17.38
2019-06-15T21:48:40.158Z,17.46
2019-06-15T21:51:07.821Z,17.55
2019-06-15T21:53:36.165Z,17.56
2019-06-15T21:56:03.113Z,17.63
2019-06-15T21:58:29.969Z,17.68
2019-06-15T22:01:11.805Z,17.60
2019-06-15T22:03:38.414Z,17.35
2019-06-15T22:06:06.405Z,17.28
2019-06-15T22:08:33.284Z,17.17
2019-06-15T22:11:01.925Z,16.92
2019-06-15T22:13:28.404Z,16.88
2019-06-15T22:15:56.207Z,16.80
2019-06-15T22:18:22.684Z,16.70
2019-06-15T22:20:49.272Z,16.68
2019-06-15T22:23:16.355Z,16.64
2019-06-15T22:25:43.290Z,16.61
2019-06-15T22:28:09.797Z,16.56
2019-06-15T22:30:36.717Z,16.43
2019-06-15T22:33:03.535Z,16.35
2019-06-15T22:35:30.214Z,16.26
2019-06-15T22:37:56.680Z,16.21
2019-06-15T22:40:23.216Z,16.23
2019-06-15T22:42:49.702Z,16.31
2019-06-15T22:45:29.680Z,16.33
2019-06-15T22:47:56.134Z,16.34
2019-06-15T22:50:22.671Z,16.35
2019-06-15T22:52:49.180Z,16.39
2019-06-15T22:55:16.553Z,16.38
2019-06-15T22:57:43.193Z,16.32
2019-06-15T23:00:09.864Z,16.22
2019-06-15T23:02:36.442Z,16.25
2019-06-15T23:05:06.296Z,16.33
2019-06-15T23:07:32.000Z,16.36
2019-06-15T23:09:58.505Z,16.32
2019-06-15T23:12:24.980Z,16.30
2019-06-15T23:14:52.599Z,16.19
2019-06-15T23:17:19.359Z,16.05
2019-06-15T23:19:46.181Z,15.92
2019-06-15T23:22:12.789Z,15.79
2019-06-15T23:24:39.650Z,15.70
2019-06-15T23:27:06.924Z,15.77
2019-06-15T23:29:33.585Z,15.68
2019-06-15T23:32:01.620Z,15.63
2019-06-15T23:34:28.471Z,15.61
2019-06-15T23:37:00.427Z,15.63
2019-06-15T23:39:27.030Z,15.67
2019-06-15T23:41:56.229Z,15.71
2019-06-15T23:44:27.013Z,15.72
2019-06-15T23:46:53.720Z,15.65
2019-06-15T23:49:20.202Z,15.56
2019-06-15T23:51:46.893Z,15.58
2019-06-15T23:54:13.420Z,15.43
2019-06-15T23:56:40.962Z,15.32
2019-06-15T23:59:07.533Z,15.25
